createdAt,value
2023-02-01T00:00:31.965Z,14.07
2023-02-01T00:02:58.828Z,13.40
2023-02-01T00:05:25.648Z,13.35
2023-02-01T00:07:52.579Z,13.02
2023-02-01T00:10:19.793Z,16.83
2023-02-01T00:12:46.855Z,17.63
2023-02-01T00:15:13.687Z,14.52
2023-02-01T00:17:40.556Z,14.73
2023-02-01T00:20:08.148Z,14.13
2023-02-01T00:22:35.216Z,14.43
2023-02-01T00:25:02.157Z,15.55
2023-02-01T00:27:29.047Z,15.75
2023-02-01T00:29:56.882Z,16.92
2023-02-01T00:32:23.805Z,13.88
2023-02-01T00:34:50.662Z,17.38
2023-02-01T00:37:17.552Z,14.07
2023-02-01T00:39:44.410Z,14.30
2023-02-01T00:42:11.413Z,15.15
2023-02-01T00:44:38.340Z,18.77
2023-02-01T00:47:05.158Z,17.60
2023-02-01T00:49:32.159Z,14.32
2023-02-01T00:51:59.118Z,13.07
2023-02-01T00:54:25.931Z,14.57
2023-02-01T00:56:52.787Z,14.25
2023-02-01T00:59:19.738Z,14.52
2023-02-01T01:01:46.657Z,16.23
2023-02-01T01:04:13.542Z,15.10
2023-02-01T01:06:40.448Z,17.00
2023-02-01T01:09:08.572Z,14.30
2023-02-01T01:11:38.599Z,16.83
2023-02-01T01:14:06.475Z,13.20
2023-02-01T01:16:33.808Z,14.77
2023-02-01T01:19:01.599Z,12.80
2023-02-01T01:21:29.330Z,16.45
2023-02-01T01:23:56.364Z,15.02
2023-02-01T01:26:26.067Z,14.35
2023-02-01T01:28:53.270Z,15.70
2023-02-01T01:31:21.350Z,16.90
2023-02-01T01:33:52.467Z,14.90
2023-02-01T01:36:19.764Z,16.70
2023-02-01T01:38:46.785Z,18.55
2023-02-01T01:41:23.049Z,18.42
2023-02-01T01:43:56.156Z,15.48
2023-02-01T01:46:31.928Z,15.30
2023-02-01T01:49:10.480Z,15.60
2023-02-01T01:51:48.808Z,17.05
2023-02-01T01:54:22.572Z,17.23
2023-02-01T01:56:54.860Z,14.85
2023-02-01T01:59:24.165Z,15.50
2023-02-01T02:01:53.222Z,24.05
2023-02-01T02:04:20.939Z,14.43
2023-02-01T02:06:56.547Z,14.98
2023-02-01T02:09:23.610Z,16.45
2023-02-01T02:11:50.525Z,14.05
2023-02-01T02:14:20.731Z,16.77
2023-02-01T02:17:17.372Z,14.20
2023-02-01T02:20:06.143Z,13.13
2023-02-01T02:23:10.258Z,12.70
2023-02-01T02:25:44.270Z,16.65
2023-02-01T02:31:06.900Z,14.85
2023-02-01T02:33:43.641Z,17.33
2023-02-01T02:36:22.679Z,17.67
2023-02-01T02:39:19.858Z,17.30
2023-02-01T02:42:37.407Z,17.55
2023-02-01T02:45:31.546Z,17.35
2023-02-01T02:48:07.755Z,19.90
2023-02-01T02:50:58.090Z,16.95
2023-02-01T02:53:58.211Z,20.15
2023-02-01T02:56:46.018Z,17.60
2023-02-01T02:59:35.230Z,18.65
2023-02-01T03:02:20.772Z,17.85
2023-02-01T03:04:47.723Z,22.65
2023-02-01T03:07:36.599Z,19.73
2023-02-01T03:10:11.712Z,20.65
2023-02-01T03:12:57.705Z,21.92
2023-02-01T03:15:33.247Z,23.98
2023-02-01T03:18:06.214Z,19.92
2023-02-01T03:20:33.483Z,21.83
2023-02-01T03:23:01.465Z,21.55
2023-02-01T03:25:31.956Z,22.98
2023-02-01T03:28:03.853Z,22.75
2023-02-01T03:30:38.795Z,21.27
2023-02-01T03:33:14.941Z,25.50
2023-02-01T03:36:12.553Z,23.13
2023-02-01T03:39:04.308Z,26.27
2023-02-01T03:41:48.964Z,22.38
2023-02-01T03:44:22.748Z,21.63
2023-02-01T03:47:28.735Z,24.67
2023-02-01T03:50:06.851Z,22.02
2023-02-01T03:53:08.855Z,21.15
2023-02-01T03:55:37.618Z,24.40
2023-02-01T03:58:09.273Z,19.75
2023-02-01T04:00:36.753Z,19.15
2023-02-01T04:03:06.399Z,20.40
2023-02-01T04:05:33.607Z,23.83
2023-02-01T04:08:00.678Z,25.27
2023-02-01T04:10:28.450Z,20.85
2023-02-01T04:12:55.452Z,21.75
2023-02-01T04:15:22.291Z,19.70
2023-02-01T04:17:49.202Z,20.25
2023-02-01T04:20:16.225Z,22.40
2023-02-01T04:22:43.138Z,19.05
2023-02-01T04:25:10.205Z,22.13
2023-02-01T04:27:37.110Z,22.20
2023-02-01T04:30:05.787Z,20.00
2023-02-01T04:32:32.632Z,18.33
2023-02-01T04:34:59.505Z,19.88
2023-02-01T04:37:26.366Z,18.65
2023-02-01T04:39:53.201Z,20.17
2023-02-01T04:42:20.061Z,19.63
2023-02-01T04:44:46.946Z,20.88
2023-02-01T04:47:13.840Z,19.27
2023-02-01T04:49:40.673Z,21.25
2023-02-01T04:52:07.669Z,22.20
2023-02-01T04:54:35.039Z,20.35
2023-02-01T04:57:01.926Z,22.70
2023-02-01T04:59:29.880Z,22.85
2023-02-01T05:01:56.856Z,20.45
2023-02-01T05:04:23.761Z,23.05
2023-02-01T05:06:50.618Z,18.15
2023-02-01T05:09:18.022Z,20.02
2023-02-01T05:12:03.407Z,18.25
2023-02-01T05:14:30.248Z,20.75
2023-02-01T05:16:57.227Z,21.00
2023-02-01T05:19:24.044Z,17.02
2023-02-01T05:21:50.910Z,22.83
2023-02-01T05:24:20.891Z,19.98
2023-02-01T05:26:49.150Z,19.92
2023-02-01T05:29:17.905Z,21.50
2023-02-01T05:31:48.719Z,19.90
2023-02-01T05:34:16.651Z,22.83
2023-02-01T05:36:44.104Z,18.27
2023-02-01T05:39:11.311Z,17.85
2023-02-01T05:41:38.691Z,19.00
2023-02-01T05:44:08.353Z,22.95
2023-02-01T05:46:36.761Z,21.55
2023-02-01T05:49:04.514Z,21.75
2023-02-01T05:51:31.565Z,21.65
2023-02-01T05:53:58.439Z,24.92
2023-02-01T05:56:25.285Z,20.75
2023-02-01T05:58:52.114Z,20.30
2023-02-01T06:01:18.954Z,19.83
2023-02-01T06:03:45.860Z,18.13
2023-02-01T06:06:12.771Z,20.92
2023-02-01T06:08:41.307Z,19.25
2023-02-01T06:11:08.856Z,19.50
2023-02-01T06:13:35.893Z,17.80
2023-02-01T06:16:04.488Z,19.48
2023-02-01T06:18:31.775Z,19.70
2023-02-01T06:21:03.360Z,17.75
2023-02-01T06:23:31.301Z,20.05
2023-02-01T06:26:08.657Z,20.75
2023-02-01T06:28:35.825Z,18.65
2023-02-01T06:31:08.852Z,19.23
2023-02-01T06:33:36.607Z,20.97
2023-02-01T06:36:06.280Z,21.92
2023-02-01T06:38:35.848Z,19.20
2023-02-01T06:41:03.609Z,18.58
2023-02-01T06:43:31.016Z,18.90
2023-02-01T06:46:02.927Z,18.25
2023-02-01T06:48:30.240Z,16.27
2023-02-01T06:50:57.129Z,21.92
2023-02-01T06:53:24.037Z,19.40
2023-02-01T06:55:58.703Z,19.95
2023-02-01T06:58:28.725Z,16.35
2023-02-01T07:00:55.593Z,17.83
2023-02-01T07:03:22.508Z,18.27
2023-02-01T07:05:49.445Z,20.45
2023-02-01T07:08:16.355Z,20.33
2023-02-01T07:10:43.292Z,17.75
2023-02-01T07:13:10.160Z,21.55
2023-02-01T07:15:37.070Z,22.27
2023-02-01T07:18:04.097Z,27.77
2023-02-01T07:20:31.058Z,25.17
2023-02-01T07:22:58.675Z,26.23
2023-02-01T07:25:25.822Z,24.13
2023-02-01T07:27:52.863Z,26.23
2023-02-01T07:30:20.261Z,24.48
2023-02-01T07:32:47.149Z,23.23
2023-02-01T07:35:15.235Z,21.02
2023-02-01T07:37:42.176Z,23.33
2023-02-01T07:40:10.014Z,21.00
2023-02-01T07:42:36.908Z,22.38
2023-02-01T07:45:19.939Z,21.58
2023-02-01T07:47:48.049Z,25.20
2023-02-01T07:50:15.299Z,23.08
2023-02-01T07:52:42.224Z,23.60
2023-02-01T07:55:09.702Z,22.42
2023-02-01T07:57:36.637Z,28.13
2023-02-01T08:00:23.286Z,27.67
2023-02-01T08:02:50.343Z,25.77
2023-02-01T08:05:17.243Z,25.58
2023-02-01T08:07:44.128Z,25.55
2023-02-01T08:10:12.579Z,23.40
2023-02-01T08:12:39.557Z,25.35
2023-02-01T08:15:07.105Z,23.05
2023-02-01T08:17:34.510Z,24.30
2023-02-01T08:20:01.416Z,29.30
2023-02-01T08:22:33.526Z,30.23
2023-02-01T08:25:02.387Z,30.92
2023-02-01T08:27:29.375Z,31.17
2023-02-01T08:29:56.486Z,29.67
2023-02-01T08:32:23.359Z,30.90
2023-02-01T08:34:50.175Z,27.48
2023-02-01T08:37:17.067Z,31.05
2023-02-01T08:39:47.872Z,26.63
2023-02-01T08:42:33.264Z,26.65
2023-02-01T08:45:00.230Z,33.10
2023-02-01T08:47:27.182Z,48.00
2023-02-01T08:49:54.641Z,50.33
2023-02-01T08:52:21.850Z,51.40
2023-02-01T08:54:48.754Z,53.70
2023-02-01T08:57:16.359Z,44.00
2023-02-01T08:59:45.065Z,32.78
2023-02-01T09:02:16.291Z,36.55
2023-02-01T09:04:43.448Z,51.83
2023-02-01T09:07:11.442Z,37.38
2023-02-01T09:09:39.244Z,27.08
2023-02-01T09:12:06.499Z,27.02
2023-02-01T09:14:33.472Z,28.63
2023-02-01T09:17:00.329Z,42.83
2023-02-01T09:19:27.565Z,81.72
2023-02-01T09:21:54.859Z,83.50
2023-02-01T09:24:22.139Z,84.60
2023-02-01T09:26:49.492Z,71.07
2023-02-01T09:29:16.403Z,59.33
2023-02-01T09:31:49.903Z,52.55
2023-02-01T09:34:24.485Z,49.80
2023-02-01T09:36:51.483Z,45.30
2023-02-01T09:39:18.445Z,39.42
2023-02-01T09:42:10.343Z,38.97
2023-02-01T09:44:58.588Z,36.47
2023-02-01T09:47:27.227Z,31.25
2023-02-01T09:50:07.501Z,31.77
2023-02-01T09:52:45.836Z,34.38
2023-02-01T09:55:28.650Z,33.13
2023-02-01T09:58:02.239Z,32.55
2023-02-01T10:00:34.694Z,38.05
2023-02-01T10:03:01.675Z,38.83
2023-02-01T10:05:56.966Z,36.38
2023-02-01T10:08:42.348Z,38.60
2023-02-01T10:11:50.336Z,47.75
2023-02-01T10:14:31.904Z,71.03
2023-02-01T10:17:23.246Z,90.28
2023-02-01T10:20:17.819Z,113.93
2023-02-01T10:25:55.479Z,63.35
2023-02-01T10:28:24.233Z,54.88
2023-02-01T10:30:58.855Z,44.88
2023-02-01T10:33:31.327Z,41.65
2023-02-01T10:36:22.574Z,44.08
2023-02-01T10:38:49.832Z,75.05
2023-02-01T10:41:22.307Z,123.60
2023-02-01T10:43:54.253Z,136.98
2023-02-01T10:46:23.543Z,125.07
2023-02-01T10:48:52.180Z,100.28
2023-02-01T10:51:59.150Z,83.53
2023-02-01T10:54:39.356Z,59.78
2023-02-01T10:57:11.685Z,64.22
2023-02-01T10:59:39.536Z,66.97
2023-02-01T11:02:36.144Z,68.38
2023-02-01T11:05:10.054Z,62.28
2023-02-01T11:10:05.479Z,55.95
2023-02-01T11:12:35.222Z,48.83
2023-02-01T11:15:17.954Z,53.30
2023-02-01T11:17:47.247Z,47.92
2023-02-01T11:20:16.512Z,46.05
2023-02-01T11:22:54.560Z,39.38
2023-02-01T11:25:23.521Z,36.33
2023-02-01T11:27:55.302Z,38.53
2023-02-01T11:30:39.566Z,25.52
2023-02-01T11:33:08.611Z,34.17
2023-02-01T11:35:41.004Z,27.77
2023-02-01T11:38:33.585Z,26.25
2023-02-01T11:41:25.680Z,22.48
2023-02-01T11:43:58.753Z,26.45
2023-02-01T11:46:32.816Z,30.63
2023-02-01T11:49:26.217Z,30.08
2023-02-01T11:52:16.094Z,33.33
2023-02-01T11:54:59.353Z,36.55
2023-02-01T11:57:29.351Z,40.40
2023-02-01T11:59:59.227Z,36.45
2023-02-01T12:02:46.750Z,38.42
2023-02-01T12:05:22.649Z,34.72
2023-02-01T12:08:03.648Z,36.50
2023-02-01T12:10:30.470Z,34.10
2023-02-01T12:13:31.556Z,33.63
2023-02-01T12:16:20.568Z,30.90
2023-02-01T12:19:14.513Z,26.02
2023-02-01T12:22:03.614Z,27.75
2023-02-01T12:24:55.967Z,27.58
2023-02-01T12:27:50.645Z,28.40
2023-02-01T12:30:42.122Z,29.88
2023-02-01T12:33:46.764Z,33.88
2023-02-01T12:36:28.525Z,30.90
2023-02-01T12:39:07.155Z,42.13
2023-02-01T12:41:45.723Z,61.65
2023-02-01T12:44:18.245Z,69.65
2023-02-01T12:46:50.973Z,66.75
2023-02-01T12:49:28.692Z,70.45
2023-02-01T12:52:27.340Z,51.33
2023-02-01T12:55:10.619Z,49.97
2023-02-01T12:57:43.406Z,41.78
2023-02-01T13:00:24.381Z,38.42
2023-02-01T13:03:06.177Z,43.33
2023-02-01T13:05:54.156Z,41.72
2023-02-01T13:08:30.166Z,47.80
2023-02-01T13:11:07.126Z,52.85
2023-02-01T13:13:47.231Z,50.42
2023-02-01T13:16:22.311Z,43.35
2023-02-01T13:18:54.653Z,37.05
2023-02-01T13:21:31.560Z,34.13
2023-02-01T13:23:59.450Z,34.45
2023-02-01T13:26:26.429Z,27.52
2023-02-01T13:28:55.425Z,24.90
2023-02-01T13:32:00.145Z,30.77
2023-02-01T13:34:57.502Z,30.60
2023-02-01T13:37:58.571Z,29.23
2023-02-01T13:40:50.778Z,27.70
2023-02-01T13:43:27.278Z,24.65
2023-02-01T13:45:57.853Z,25.23
2023-02-01T13:48:32.718Z,25.77
2023-02-01T13:51:00.886Z,24.52
2023-02-01T13:53:34.623Z,18.08
2023-02-01T13:56:23.497Z,22.73
2023-02-01T13:58:52.391Z,20.00
2023-02-01T14:01:22.375Z,19.45
2023-02-01T14:03:57.675Z,18.10
2023-02-01T14:06:27.669Z,17.52
2023-02-01T14:09:39.853Z,17.45
2023-02-01T14:12:45.411Z,12.27
2023-02-01T14:15:28.379Z,18.48
2023-02-01T14:17:56.230Z,18.05
2023-02-01T14:20:42.069Z,16.35
2023-02-01T14:23:20.744Z,14.32
2023-02-01T14:25:58.108Z,14.82
2023-02-01T14:28:29.216Z,14.05
2023-02-01T14:30:58.741Z,10.20
2023-02-01T14:33:29.048Z,9.02
2023-02-01T14:36:09.610Z,8.25
2023-02-01T14:38:39.819Z,10.52
2023-02-01T14:41:30.979Z,7.90
2023-02-01T14:44:03.957Z,14.20
2023-02-01T14:47:06.139Z,15.97
2023-02-01T14:50:02.470Z,13.57
2023-02-01T14:52:43.325Z,12.48
2023-02-01T14:55:19.749Z,15.07
2023-02-01T14:57:50.157Z,12.27
2023-02-01T15:00:29.473Z,12.18
2023-02-01T15:03:16.817Z,9.32
2023-02-01T15:05:43.792Z,11.70
2023-02-01T15:08:21.747Z,8.50
2023-02-01T15:10:53.309Z,8.85
2023-02-01T15:13:28.635Z,9.40
2023-02-01T15:16:12.926Z,10.75
2023-02-01T15:18:41.001Z,11.32
2023-02-01T15:21:29.787Z,13.73
2023-02-01T15:24:15.577Z,9.82
2023-02-01T15:26:42.654Z,8.85
2023-02-01T15:29:14.671Z,14.35
2023-02-01T15:31:45.848Z,14.40
2023-02-01T15:34:13.505Z,9.50
2023-02-01T15:36:45.829Z,10.23
2023-02-01T15:39:27.594Z,8.82
2023-02-01T15:41:57.907Z,11.52
2023-02-01T15:44:43.033Z,13.63
2023-02-01T15:47:24.424Z,9.32
2023-02-01T15:49:59.589Z,10.23
2023-02-01T15:52:37.237Z,11.93
2023-02-01T15:55:08.440Z,13.90
2023-02-01T15:57:41.923Z,10.45
2023-02-01T16:00:23.345Z,15.95
2023-02-01T16:02:56.248Z,14.00
2023-02-01T16:05:45.726Z,14.30
2023-02-01T16:08:22.958Z,12.23
2023-02-01T16:10:53.055Z,15.90
2023-02-01T16:13:21.544Z,16.55
2023-02-01T16:15:49.565Z,13.60
2023-02-01T16:18:18.900Z,16.08
2023-02-01T16:20:48.188Z,11.40
2023-02-01T16:23:15.554Z,15.45
2023-02-01T16:25:42.657Z,12.93
2023-02-01T16:28:09.709Z,17.88
2023-02-01T16:30:36.964Z,14.07
2023-02-01T16:33:05.935Z,12.35
2023-02-01T16:35:36.883Z,14.07
2023-02-01T16:38:16.187Z,14.30
2023-02-01T16:40:44.421Z,13.85
2023-02-01T16:43:18.899Z,15.43
2023-02-01T16:45:49.751Z,15.70
2023-02-01T16:48:26.728Z,18.15
2023-02-01T16:50:59.205Z,14.35
2023-02-01T16:53:28.712Z,14.07
2023-02-01T16:55:55.741Z,15.43
2023-02-01T16:58:22.675Z,13.27
2023-02-01T17:00:50.396Z,12.95
2023-02-01T17:03:20.081Z,13.95
2023-02-01T17:05:57.801Z,13.98
2023-02-01T17:08:39.711Z,22.42
2023-02-01T17:11:07.772Z,17.80
2023-02-01T17:13:35.431Z,17.00
2023-02-01T17:16:29.732Z,17.48
2023-02-01T17:19:04.337Z,19.50
2023-02-01T17:22:02.673Z,16.98
2023-02-01T17:24:42.723Z,18.13
2023-02-01T17:27:15.888Z,18.05
2023-02-01T17:29:43.822Z,17.58
2023-02-01T17:32:18.734Z,12.23
2023-02-01T17:34:46.512Z,12.30
2023-02-01T17:37:29.030Z,12.57
2023-02-01T17:39:56.319Z,10.57
2023-02-01T17:42:27.959Z,12.52
2023-02-01T17:45:12.695Z,11.82
2023-02-01T17:47:39.535Z,13.15
2023-02-01T17:50:06.852Z,12.75
2023-02-01T17:52:33.644Z,15.02
2023-02-01T17:55:00.467Z,16.63
2023-02-01T17:57:27.327Z,13.93
2023-02-01T17:59:54.182Z,13.10
2023-02-01T18:02:23.499Z,16.38
2023-02-01T18:04:51.387Z,19.35
2023-02-01T18:07:18.268Z,20.73
2023-02-01T18:09:45.107Z,19.35
2023-02-01T18:12:23.516Z,18.42
2023-02-01T18:14:50.392Z,18.83
2023-02-01T18:17:17.245Z,19.95
2023-02-01T18:19:44.119Z,20.00
2023-02-01T18:22:17.164Z,18.85
2023-02-01T18:24:44.141Z,19.67
2023-02-01T18:27:10.986Z,20.17
2023-02-01T18:29:37.834Z,22.95
2023-02-01T18:32:04.942Z,20.67
2023-02-01T18:34:31.887Z,19.52
2023-02-01T18:36:58.847Z,17.42
2023-02-01T18:39:25.767Z,17.40
2023-02-01T18:41:53.005Z,17.08
2023-02-01T18:44:19.933Z,14.85
2023-02-01T18:46:46.928Z,14.43
2023-02-01T18:49:18.013Z,15.30
2023-02-01T18:51:45.420Z,17.08
2023-02-01T18:54:12.456Z,19.25
2023-02-01T18:56:39.934Z,15.52
2023-02-01T18:59:06.828Z,18.15
2023-02-01T19:01:33.732Z,17.92
2023-02-01T19:04:09.647Z,15.93
2023-02-01T19:06:47.897Z,14.93
2023-02-01T19:09:14.731Z,18.77
2023-02-01T19:11:41.607Z,15.70
2023-02-01T19:14:08.456Z,19.33
2023-02-01T19:16:39.778Z,18.23
2023-02-01T19:19:06.688Z,16.85
2023-02-01T19:21:33.599Z,18.33
2023-02-01T19:24:00.511Z,19.98
2023-02-01T19:26:27.349Z,19.50
2023-02-01T19:28:54.473Z,17.55
2023-02-01T19:31:21.510Z,14.73
2023-02-01T19:33:48.500Z,13.75
2023-02-01T19:36:15.485Z,15.23
2023-02-01T19:38:42.340Z,15.27
2023-02-01T19:41:09.194Z,15.35
2023-02-01T19:43:36.981Z,14.63
2023-02-01T19:46:04.455Z,15.75
2023-02-01T19:48:31.872Z,17.58
2023-02-01T19:50:59.436Z,13.55
2023-02-01T19:53:27.974Z,15.05
2023-02-01T19:55:58.924Z,17.02
2023-02-01T19:58:26.500Z,15.38
2023-02-01T20:00:57.216Z,14.40
2023-02-01T20:03:24.387Z,20.48
2023-02-01T20:05:56.243Z,12.98
2023-02-01T20:08:23.637Z,16.35
2023-02-01T20:10:50.469Z,17.70
2023-02-01T20:13:17.358Z,17.98
2023-02-01T20:15:44.321Z,14.90
2023-02-01T20:18:11.297Z,17.38
2023-02-01T20:20:38.214Z,16.42
2023-02-01T20:23:06.439Z,14.57
2023-02-01T20:25:34.266Z,18.25
2023-02-01T20:28:01.330Z,16.35
2023-02-01T20:30:29.436Z,13.60
2023-02-01T20:32:56.375Z,15.68
2023-02-01T20:35:23.666Z,15.63
2023-02-01T20:37:51.846Z,18.20
2023-02-01T20:40:18.902Z,18.48
2023-02-01T20:42:45.777Z,13.35
2023-02-01T20:45:12.597Z,16.52
2023-02-01T20:47:41.458Z,14.18
2023-02-01T20:50:09.177Z,14.88
2023-02-01T20:52:35.999Z,12.25
2023-02-01T20:55:03.100Z,12.48
2023-02-01T20:57:30.073Z,13.35
2023-02-01T20:59:56.936Z,15.45
2023-02-01T21:02:24.638Z,12.57
2023-02-01T21:04:51.494Z,12.60
2023-02-01T21:07:18.629Z,13.60
2023-02-01T21:09:45.438Z,16.40
2023-02-01T21:12:12.469Z,14.10
2023-02-01T21:14:39.349Z,11.80
2023-02-01T21:17:06.163Z,15.23
2023-02-01T21:19:43.103Z,15.45
2023-02-01T21:22:14.925Z,13.23
2023-02-01T21:24:42.573Z,13.75
2023-02-01T21:27:10.137Z,14.55
2023-02-01T21:29:37.256Z,13.65
2023-02-01T21:32:05.788Z,11.20
2023-02-01T21:34:33.481Z,14.18
2023-02-01T21:37:00.403Z,16.67
2023-02-01T21:39:29.009Z,16.52
2023-02-01T21:42:14.632Z,13.70
2023-02-01T21:44:42.424Z,15.90
2023-02-01T21:47:10.858Z,14.25
2023-02-01T21:49:37.722Z,12.88
2023-02-01T21:52:05.597Z,12.73
2023-02-01T21:54:32.437Z,14.60
2023-02-01T21:56:59.284Z,12.95
2023-02-01T21:59:26.224Z,14.75
2023-02-01T22:01:53.496Z,15.10
2023-02-01T22:04:20.311Z,14.30
2023-02-01T22:06:47.267Z,13.27
2023-02-01T22:09:23.227Z,15.48
2023-02-01T22:11:51.489Z,15.00
2023-02-01T22:14:19.045Z,17.63
2023-02-01T22:16:46.503Z,13.45
2023-02-01T22:19:13.887Z,17.70
2023-02-01T22:21:42.317Z,16.55
2023-02-01T22:24:11.281Z,17.48
2023-02-01T22:26:38.646Z,16.83
2023-02-01T22:29:06.276Z,14.93
2023-02-01T22:31:33.305Z,16.30
2023-02-01T22:34:00.604Z,14.13
2023-02-01T22:36:27.641Z,13.32
2023-02-01T22:38:54.514Z,15.95
2023-02-01T22:41:21.382Z,13.77
2023-02-01T22:43:48.306Z,12.77
2023-02-01T22:46:18.038Z,13.20
2023-02-01T22:48:46.747Z,11.35
2023-02-01T22:51:25.145Z,17.05
2023-02-01T22:53:57.200Z,15.07
2023-02-01T22:56:26.364Z,14.15
2023-02-01T22:58:58.378Z,11.75
2023-02-01T23:01:25.579Z,11.70
2023-02-01T23:03:57.467Z,11.35
2023-02-01T23:06:24.990Z,9.57
2023-02-01T23:08:56.417Z,9.27
2023-02-01T23:11:24.142Z,9.40
2023-02-01T23:13:51.323Z,11.60
2023-02-01T23:16:18.476Z,11.25
2023-02-01T23:18:45.334Z,11.57
2023-02-01T23:21:18.177Z,10.07
2023-02-01T23:23:54.773Z,9.98
2023-02-01T23:26:23.535Z,10.23
2023-02-01T23:28:54.209Z,9.52
2023-02-01T23:31:23.017Z,10.20
2023-02-01T23:33:54.727Z,8.50
2023-02-01T23:36:23.317Z,9.02
2023-02-01T23:38:50.777Z,10.80
2023-02-01T23:41:19.369Z,15.48
2023-02-01T23:43:58.924Z,12.13
2023-02-01T23:46:26.189Z,15.05
2023-02-01T23:48:53.333Z,15.30
2023-02-01T23:51:21.198Z,19.58
2023-02-01T23:53:48.366Z,15.40
2023-02-01T23:56:39.640Z,14.65
2023-02-01T23:59:09.962Z,13.20
